sensor_id;sensor_type;location;lat;lon;timestamp;pressure;altitude;pressure_sealevel;temperature;humidity
37710;BME280;60223;34.854;-92.408;2022-11-20T00:01:28;101832.93;;;25.01;20.23
37710;BME280;60223;34.854;-92.408;2022-11-20T00:03:51;101832.45;;;25.08;20.43
37710;BME280;60223;34.854;-92.408;2022-11-20T00:06:19;101840.26;;;24.28;20.84
37710;BME280;60223;34.854;-92.408;2022-11-20T00:08:43;101841.89;;;24.47;20.72
37710;BME280;60223;34.854;-92.408;2022-11-20T00:11:08;101842.20;;;24.03;20.84
37710;BME280;60223;34.854;-92.408;2022-11-20T00:13:33;101837.70;;;24.27;20.82
37710;BME280;60223;34.854;-92.408;2022-11-20T00:16:01;101834.55;;;24.08;21.02
37710;BME280;60223;34.854;-92.408;2022-11-20T00:18:23;101837.58;;;23.97;21.21
37710;BME280;60223;34.854;-92.408;2022-11-20T00:20:48;101843.54;;;23.96;21.21
37710;BME280;60223;34.854;-92.408;2022-11-20T00:23:15;101847.47;;;24.02;21.12
37710;BME280;60223;34.854;-92.408;2022-11-20T00:25:40;101850.46;;;23.79;21.25
37710;BME280;60223;34.854;-92.408;2022-11-20T00:28:08;101852.86;;;23.95;21.15
37710;BME280;60223;34.854;-92.408;2022-11-20T00:30:30;101855.85;;;23.92;21.24
37710;BME280;60223;34.854;-92.408;2022-11-20T00:32:57;101858.15;;;24.06;21.33
37710;BME280;60223;34.854;-92.408;2022-11-20T00:35:23;101862.40;;;23.70;21.67
37710;BME280;60223;34.854;-92.408;2022-11-20T00:37:47;101861.71;;;25.34;20.55
37710;BME280;60223;34.854;-92.408;2022-11-20T00:40:12;101871.56;;;24.44;21.10
37710;BME280;60223;34.854;-92.408;2022-11-20T00:42:38;101875.47;;;24.55;21.20
37710;BME280;60223;34.854;-92.408;2022-11-20T00:45:03;101882.02;;;24.96;21.14
37710;BME280;60223;34.854;-92.408;2022-11-20T00:49:53;101886.49;;;25.00;21.14
37710;BME280;60223;34.854;-92.408;2022-11-20T00:52:17;101888.06;;;24.34;21.51
37710;BME280;60223;34.854;-92.408;2022-11-20T00:54:43;101892.16;;;24.23;21.42
37710;BME280;60223;34.854;-92.408;2022-11-20T00:57:09;101894.81;;;24.66;21.48
37710;BME280;60223;34.854;-92.408;2022-11-20T00:59:34;101900.38;;;24.21;21.46
37710;BME280;60223;34.854;-92.408;2022-11-20T01:01:59;101901.65;;;24.14;21.51
37710;BME280;60223;34.854;-92.408;2022-11-20T01:04:25;101902.53;;;24.14;21.49
37710;BME280;60223;34.854;-92.408;2022-11-20T01:06:50;101905.13;;;24.44;21.45
37710;BME280;60223;34.854;-92.408;2022-11-20T01:09:16;101908.12;;;24.06;21.56
37710;BME280;60223;34.854;-92.408;2022-11-20T01:11:42;101909.92;;;24.09;21.53
37710;BME280;60223;34.854;-92.408;2022-11-20T01:14:07;101912.94;;;24.17;21.63
37710;BME280;60223;34.854;-92.408;2022-11-20T01:16:33;101911.25;;;24.45;21.60
37710;BME280;60223;34.854;-92.408;2022-11-20T01:18:58;101912.69;;;24.34;21.68
37710;BME280;60223;34.854;-92.408;2022-11-20T01:21:23;101915.59;;;24.28;21.54
37710;BME280;60223;34.854;-92.408;2022-11-20T01:23:48;101913.23;;;25.09;20.76
37710;BME280;60223;34.854;-92.408;2022-11-20T01:26:15;101915.10;;;24.56;21.33
37710;BME280;60223;34.854;-92.408;2022-11-20T01:28:37;101919.13;;;24.03;21.59
37710;BME280;60223;34.854;-92.408;2022-11-20T01:33:30;101920.62;;;24.30;21.58
37710;BME280;60223;34.854;-92.408;2022-11-20T01:38:19;101923.70;;;24.30;21.65
37710;BME280;60223;34.854;-92.408;2022-11-20T01:40:46;101923.79;;;24.65;21.53
37710;BME280;60223;34.854;-92.408;2022-11-20T01:43:17;101924.67;;;24.30;21.43
37710;BME280;60223;34.854;-92.408;2022-11-20T01:45:52;101925.52;;;24.10;21.57
37710;BME280;60223;34.854;-92.408;2022-11-20T01:48:02;101923.21;;;24.00;21.60
37710;BME280;60223;34.854;-92.408;2022-11-20T01:50:29;101929.14;;;24.41;21.61
37710;BME280;60223;34.854;-92.408;2022-11-20T01:52:55;101931.85;;;24.35;21.59
37710;BME280;60223;34.854;-92.408;2022-11-20T01:55:21;101929.78;;;23.78;21.63
37710;BME280;60223;34.854;-92.408;2022-11-20T01:57:44;101927.53;;;23.81;21.53
37710;BME280;60223;34.854;-92.408;2022-11-20T02:00:12;101930.01;;;23.82;21.50
37710;BME280;60223;34.854;-92.408;2022-11-20T02:02:35;101935.17;;;23.61;21.85
37710;BME280;60223;34.854;-92.408;2022-11-20T02:05:04;101933.75;;;23.82;21.19
37710;BME280;60223;34.854;-92.408;2022-11-20T02:07:26;101942.40;;;24.30;20.86
37710;BME280;60223;34.854;-92.408;2022-11-20T02:09:51;101944.19;;;23.90;21.31
37710;BME280;60223;34.854;-92.408;2022-11-20T02:12:16;101946.93;;;23.65;21.54
37710;BME280;60223;34.854;-92.408;2022-11-20T02:14:42;101948.70;;;24.05;21.26
37710;BME280;60223;34.854;-92.408;2022-11-20T02:17:07;101950.82;;;24.18;21.35
37710;BME280;60223;34.854;-92.408;2022-11-20T02:19:33;101955.33;;;24.58;21.06
37710;BME280;60223;34.854;-92.408;2022-11-20T02:22:04;101953.64;;;24.53;21.24
37710;BME280;60223;34.854;-92.408;2022-11-20T02:24:25;101952.50;;;24.13;21.19
37710;BME280;60223;34.854;-92.408;2022-11-20T02:26:53;101954.43;;;24.20;21.08
37710;BME280;60223;34.854;-92.408;2022-11-20T02:29:15;101956.25;;;24.29;21.18
37710;BME280;60223;34.854;-92.408;2022-11-20T02:31:45;101958.44;;;24.13;21.09
37710;BME280;60223;34.854;-92.408;2022-11-20T02:38:56;101961.81;;;23.87;21.30
37710;BME280;60223;34.854;-92.408;2022-11-20T02:41:18;101961.67;;;24.00;21.20
37710;BME280;60223;34.854;-92.408;2022-11-20T02:43:47;101959.93;;;24.18;21.21
37710;BME280;60223;34.854;-92.408;2022-11-20T02:46:13;101959.50;;;23.40;21.59
37710;BME280;60223;34.854;-92.408;2022-11-20T02:48:38;101967.22;;;24.95;20.68
37710;BME280;60223;34.854;-92.408;2022-11-20T02:51:03;101971.66;;;24.68;21.03
37710;BME280;60223;34.854;-92.408;2022-11-20T02:53:29;101971.05;;;24.55;21.15
37710;BME280;60223;34.854;-92.408;2022-11-20T02:55:54;101975.62;;;24.45;21.05
37710;BME280;60223;34.854;-92.408;2022-11-20T02:58:20;101973.06;;;24.14;21.49
37710;BME280;60223;34.854;-92.408;2022-11-20T03:00:45;101978.51;;;24.63;20.94
37710;BME280;60223;34.854;-92.408;2022-11-20T03:03:10;101980.80;;;24.32;21.37
37710;BME280;60223;34.854;-92.408;2022-11-20T03:05:36;101983.91;;;24.43;21.24
37710;BME280;60223;34.854;-92.408;2022-11-20T03:08:02;101988.87;;;24.46;21.21
37710;BME280;60223;34.854;-92.408;2022-11-20T03:10:27;101997.15;;;24.33;21.14
37710;BME280;60223;34.854;-92.408;2022-11-20T03:12:56;101999.33;;;24.45;21.21
37710;BME280;60223;34.854;-92.408;2022-11-20T03:15:17;102002.72;;;24.31;21.28
37710;BME280;60223;34.854;-92.408;2022-11-20T03:17:42;102006.13;;;24.03;21.29
37710;BME280;60223;34.854;-92.408;2022-11-20T03:20:09;102006.65;;;24.65;21.00
37710;BME280;60223;34.854;-92.408;2022-11-20T03:22:34;102009.56;;;24.77;20.90
37710;BME280;60223;34.854;-92.408;2022-11-20T03:24:58;102009.07;;;24.64;20.97
37710;BME280;60223;34.854;-92.408;2022-11-20T03:27:24;102008.21;;;23.93;21.31
37710;BME280;60223;34.854;-92.408;2022-11-20T03:29:50;102017.00;;;24.91;20.59
37710;BME280;60223;34.854;-92.408;2022-11-20T03:32:14;102016.74;;;24.44;21.12
37710;BME280;60223;34.854;-92.408;2022-11-20T03:34:40;102017.67;;;24.13;21.37
37710;BME280;60223;34.854;-92.408;2022-11-20T03:37:05;102018.94;;;24.58;20.89
37710;BME280;60223;34.854;-92.408;2022-11-20T03:39:31;102017.29;;;23.99;21.10
37710;BME280;60223;34.854;-92.408;2022-11-20T03:41:57;102021.77;;;24.80;20.71
37710;BME280;60223;34.854;-92.408;2022-11-20T03:44:25;102018.03;;;24.76;20.76
37710;BME280;60223;34.854;-92.408;2022-11-20T03:46:47;102018.48;;;24.39;20.83
37710;BME280;60223;34.854;-92.408;2022-11-20T03:49:13;102016.97;;;24.79;20.72
37710;BME280;60223;34.854;-92.408;2022-11-20T03:51:39;102021.51;;;24.78;20.72
37710;BME280;60223;34.854;-92.408;2022-11-20T03:54:06;102028.09;;;24.80;20.70
37710;BME280;60223;34.854;-92.408;2022-11-20T03:56:31;102027.79;;;24.61;20.65
37710;BME280;60223;34.854;-92.408;2022-11-20T03:58:55;102032.65;;;24.58;20.65
37710;BME280;60223;34.854;-92.408;2022-11-20T04:01:22;102029.57;;;24.55;20.62
37710;BME280;60223;34.854;-92.408;2022-11-20T04:03:47;102021.85;;;24.94;20.65
37710;BME280;60223;34.854;-92.408;2022-11-20T04:06:13;102019.01;;;24.70;20.79
37710;BME280;60223;34.854;-92.408;2022-11-20T04:08:38;102018.57;;;24.02;21.25
37710;BME280;60223;34.854;-92.408;2022-11-20T04:11:09;102024.65;;;24.90;20.54
37710;BME280;60223;34.854;-92.408;2022-11-20T04:13:31;102028.67;;;24.59;20.91
37710;BME280;60223;34.854;-92.408;2022-11-20T04:15:56;102033.74;;;24.12;21.14
37710;BME280;60223;34.854;-92.408;2022-11-20T04:18:20;102037.44;;;24.66;20.98
37710;BME280;60223;34.854;-92.408;2022-11-20T04:20:45;102038.33;;;24.49;21.06
37710;BME280;60223;34.854;-92.408;2022-11-20T04:23:10;102040.41;;;24.94;20.78
37710;BME280;60223;34.854;-92.408;2022-11-20T04:25:36;102040.15;;;24.88;20.70
37710;BME280;60223;34.854;-92.408;2022-11-20T04:28:01;102043.96;;;24.73;20.80
37710;BME280;60223;34.854;-92.408;2022-11-20T04:30:27;102049.34;;;24.79;20.55
37710;BME280;60223;34.854;-92.408;2022-11-20T04:32:52;102051.30;;;25.30;20.50
37710;BME280;60223;34.854;-92.408;2022-11-20T04:35:18;102050.65;;;24.71;20.56
37710;BME280;60223;34.854;-92.408;2022-11-20T04:37:43;102050.86;;;24.77;20.45
37710;BME280;60223;34.854;-92.408;2022-11-20T04:40:10;102049.67;;;24.97;20.45
37710;BME280;60223;34.854;-92.408;2022-11-20T04:42:34;102051.17;;;24.61;20.48
37710;BME280;60223;34.854;-92.408;2022-11-20T04:45:00;102048.66;;;24.99;20.51
37710;BME280;60223;34.854;-92.408;2022-11-20T04:47:25;102043.56;;;24.38;20.56
37710;BME280;60223;34.854;-92.408;2022-11-20T04:49:51;102044.14;;;24.62;20.69
37710;BME280;60223;34.854;-92.408;2022-11-20T04:52:17;102044.73;;;24.11;20.90
37710;BME280;60223;34.854;-92.408;2022-11-20T04:54:41;102046.34;;;24.03;21.13
37710;BME280;60223;34.854;-92.408;2022-11-20T04:57:07;102052.98;;;23.19;21.55
37710;BME280;60223;34.854;-92.408;2022-11-20T04:59:32;102056.73;;;23.35;21.61
37710;BME280;60223;34.854;-92.408;2022-11-20T05:01:58;102076.79;;;23.65;21.37
37710;BME280;60223;34.854;-92.408;2022-11-20T05:04:24;102080.71;;;23.07;21.57
37710;BME280;60223;34.854;-92.408;2022-11-20T05:06:50;102084.54;;;23.08;21.53
37710;BME280;60223;34.854;-92.408;2022-11-20T05:09:15;102089.45;;;23.30;21.50
37710;BME280;60223;34.854;-92.408;2022-11-20T05:11:40;102097.71;;;23.48;21.35
37710;BME280;60223;34.854;-92.408;2022-11-20T05:14:06;102097.56;;;23.50;21.28
37710;BME280;60223;34.854;-92.408;2022-11-20T05:16:33;102096.64;;;23.32;21.37
37710;BME280;60223;34.854;-92.408;2022-11-20T05:18:58;102098.96;;;22.91;21.61
37710;BME280;60223;34.854;-92.408;2022-11-20T05:21:23;102091.35;;;23.14;21.42
37710;BME280;60223;34.854;-92.408;2022-11-20T05:23:49;102091.64;;;23.12;21.56
37710;BME280;60223;34.854;-92.408;2022-11-20T05:26:18;102096.25;;;22.98;21.61
37710;BME280;60223;34.854;-92.408;2022-11-20T05:28:40;102097.62;;;23.08;21.68
37710;BME280;60223;34.854;-92.408;2022-11-20T05:31:09;102097.56;;;22.93;21.55
37710;BME280;60223;34.854;-92.408;2022-11-20T05:33:31;102097.00;;;23.00;21.66
37710;BME280;60223;34.854;-92.408;2022-11-20T05:36:01;102099.81;;;22.80;21.76
37710;BME280;60223;34.854;-92.408;2022-11-20T05:38:22;102106.77;;;22.92;21.65
37710;BME280;60223;34.854;-92.408;2022-11-20T05:40:48;102115.27;;;22.58;21.87
37710;BME280;60223;34.854;-92.408;2022-11-20T05:43:14;102119.20;;;22.46;21.95
37710;BME280;60223;34.854;-92.408;2022-11-20T05:45:39;102121.67;;;22.27;22.00
37710;BME280;60223;34.854;-92.408;2022-11-20T05:48:04;102122.59;;;22.19;22.08
37710;BME280;60223;34.854;-92.408;2022-11-20T05:50:30;102118.54;;;22.06;22.13
37710;BME280;60223;34.854;-92.408;2022-11-20T05:52:57;102122.73;;;22.21;21.98
37710;BME280;60223;34.854;-92.408;2022-11-20T05:55:21;102122.29;;;21.94;22.09
37710;BME280;60223;34.854;-92.408;2022-11-20T05:57:47;102124.39;;;22.33;21.79
37710;BME280;60223;34.854;-92.408;2022-11-20T06:00:13;102125.78;;;21.74;22.20
37710;BME280;60223;34.854;-92.408;2022-11-20T06:02:38;102127.71;;;21.88;22.06
37710;BME280;60223;34.854;-92.408;2022-11-20T06:05:04;102130.75;;;22.06;22.27
37710;BME280;60223;34.854;-92.408;2022-11-20T06:07:30;102131.64;;;21.46;22.50
37710;BME280;60223;34.854;-92.408;2022-11-20T06:09:55;102135.61;;;22.11;22.17
37710;BME280;60223;34.854;-92.408;2022-11-20T06:12:21;102145.71;;;21.49;22.42
37710;BME280;60223;34.854;-92.408;2022-11-20T06:14:46;102150.27;;;21.82;22.31
37710;BME280;60223;34.854;-92.408;2022-11-20T06:17:12;102151.49;;;21.62;22.28
37710;BME280;60223;34.854;-92.408;2022-11-20T06:19:38;102154.86;;;21.36;22.42
37710;BME280;60223;34.854;-92.408;2022-11-20T06:22:03;102158.54;;;21.71;22.28
37710;BME280;60223;34.854;-92.408;2022-11-20T06:24:29;102165.20;;;21.17;22.50
37710;BME280;60223;34.854;-92.408;2022-11-20T06:26:54;102168.70;;;21.36;22.50
37710;BME280;60223;34.854;-92.408;2022-11-20T06:29:20;102163.24;;;21.55;22.29
37710;BME280;60223;34.854;-92.408;2022-11-20T06:31:45;102158.09;;;21.66;22.24
37710;BME280;60223;34.854;-92.408;2022-11-20T06:34:11;102162.05;;;21.10;22.45
37710;BME280;60223;34.854;-92.408;2022-11-20T06:36:36;102160.43;;;20.99;22.29
37710;BME280;60223;34.854;-92.408;2022-11-20T06:39:02;102158.16;;;20.94;22.49
37710;BME280;60223;34.854;-92.408;2022-11-20T06:41:28;102156.73;;;21.63;22.11
37710;BME280;60223;34.854;-92.408;2022-11-20T06:43:53;102158.44;;;20.97;22.58
37710;BME280;60223;34.854;-92.408;2022-11-20T06:46:20;102156.59;;;21.04;22.49
37710;BME280;60223;34.854;-92.408;2022-11-20T06:48:45;102150.15;;;21.08;22.26
37710;BME280;60223;34.854;-92.408;2022-11-20T06:51:12;102154.36;;;21.30;22.25
37710;BME280;60223;34.854;-92.408;2022-11-20T06:53:37;102158.23;;;21.25;22.22
37710;BME280;60223;34.854;-92.408;2022-11-20T06:56:02;102163.39;;;20.76;22.59
37710;BME280;60223;34.854;-92.408;2022-11-20T06:58:31;102164.80;;;20.95;22.42
37710;BME280;60223;34.854;-92.408;2022-11-20T07:00:52;102160.36;;;21.57;21.90
37710;BME280;60223;34.854;-92.408;2022-11-20T07:03:18;102165.58;;;20.97;22.34
37710;BME280;60223;34.854;-92.408;2022-11-20T07:05:44;102168.49;;;20.59;22.61
37710;BME280;60223;34.854;-92.408;2022-11-20T07:08:11;102170.73;;;21.04;22.19
37710;BME280;60223;34.854;-92.408;2022-11-20T07:10:36;102171.29;;;20.96;22.25
37710;BME280;60223;34.854;-92.408;2022-11-20T07:13:01;102171.95;;;20.65;22.44
37710;BME280;60223;34.854;-92.408;2022-11-20T07:16:05;102177.42;;;21.14;22.28
37710;BME280;60223;34.854;-92.408;2022-11-20T07:17:53;102181.24;;;20.81;22.30
37710;BME280;60223;34.854;-92.408;2022-11-20T07:20:19;102184.63;;;21.18;22.17
37710;BME280;60223;34.854;-92.408;2022-11-20T07:22:44;102185.53;;;20.94;22.14
37710;BME280;60223;34.854;-92.408;2022-11-20T07:25:10;102184.02;;;20.70;22.32
37710;BME280;60223;34.854;-92.408;2022-11-20T07:27:36;102186.79;;;21.14;22.13
37710;BME280;60223;34.854;-92.408;2022-11-20T07:30:01;102186.06;;;20.43;22.44
37710;BME280;60223;34.854;-92.408;2022-11-20T07:32:24;102185.97;;;21.55;21.76
37710;BME280;60223;34.854;-92.408;2022-11-20T07:34:53;102182.81;;;20.75;22.15
37710;BME280;60223;34.854;-92.408;2022-11-20T07:37:18;102181.60;;;20.78;22.29
37710;BME280;60223;34.854;-92.408;2022-11-20T07:39:44;102186.94;;;21.19;21.95
37710;BME280;60223;34.854;-92.408;2022-11-20T07:42:10;102188.24;;;20.96;22.10
37710;BME280;60223;34.854;-92.408;2022-11-20T07:44:35;102191.58;;;20.37;22.33
37710;BME280;60223;34.854;-92.408;2022-11-20T07:47:02;102191.18;;;20.59;22.34
37710;BME280;60223;34.854;-92.408;2022-11-20T07:49:28;102195.65;;;20.95;22.03
37710;BME280;60223;34.854;-92.408;2022-11-20T07:51:54;102198.63;;;20.75;22.16
37710;BME280;60223;34.854;-92.408;2022-11-20T07:54:18;102201.22;;;20.93;21.97
37710;BME280;60223;34.854;-92.408;2022-11-20T07:56:44;102199.75;;;20.40;22.54
37710;BME280;60223;34.854;-92.408;2022-11-20T07:59:10;102197.88;;;21.08;21.85
37710;BME280;60223;34.854;-92.408;2022-11-20T08:01:36;102195.04;;;21.15;21.92
37710;BME280;60223;34.854;-92.408;2022-11-20T08:04:01;102193.53;;;20.76;21.86
37710;BME280;60223;34.854;-92.408;2022-11-20T08:06:27;102193.94;;;20.62;22.09
37710;BME280;60223;34.854;-92.408;2022-11-20T08:08:52;102197.83;;;20.63;22.06
37710;BME280;60223;34.854;-92.408;2022-11-20T08:11:19;102199.29;;;20.78;22.12
37710;BME280;60223;34.854;-92.408;2022-11-20T08:13:44;102198.56;;;20.44;22.18
37710;BME280;60223;34.854;-92.408;2022-11-20T08:16:10;102196.45;;;20.50;22.31
37710;BME280;60223;34.854;-92.408;2022-11-20T08:18:36;102202.74;;;18.31;24.22
37710;BME280;60223;34.854;-92.408;2022-11-20T08:21:05;102212.06;;;21.86;21.37
37710;BME280;60223;34.854;-92.408;2022-11-20T08:23:28;102211.67;;;22.02;21.19
37710;BME280;60223;34.854;-92.408;2022-11-20T08:25:54;102210.40;;;22.26;21.09
37710;BME280;60223;34.854;-92.408;2022-11-20T08:28:19;102210.68;;;22.55;20.96
37710;BME280;60223;34.854;-92.408;2022-11-20T08:30:45;102217.07;;;22.52;20.81
37710;BME280;60223;34.854;-92.408;2022-11-20T08:33:12;102213.27;;;23.25;20.20
37710;BME280;60223;34.854;-92.408;2022-11-20T08:35:37;102214.92;;;23.13;20.13
37710;BME280;60223;34.854;-92.408;2022-11-20T08:38:02;102215.78;;;23.31;20.01
37710;BME280;60223;34.854;-92.408;2022-11-20T08:40:27;102211.40;;;23.26;20.19
37710;BME280;60223;34.854;-92.408;2022-11-20T08:42:54;102207.51;;;23.02;20.15
37710;BME280;60223;34.854;-92.408;2022-11-20T08:45:19;102206.57;;;22.69;20.21
37710;BME280;60223;34.854;-92.408;2022-11-20T08:47:44;102213.26;;;23.39;20.08
37710;BME280;60223;34.854;-92.408;2022-11-20T08:50:11;102214.49;;;22.92;20.20
37710;BME280;60223;34.854;-92.408;2022-11-20T08:52:35;102211.73;;;22.84;20.25
37710;BME280;60223;34.854;-92.408;2022-11-20T08:55:01;102209.55;;;22.80;20.23
37710;BME280;60223;34.854;-92.408;2022-11-20T08:57:27;102213.44;;;22.37;20.52
37710;BME280;60223;34.854;-92.408;2022-11-20T08:59:53;102218.07;;;21.87;20.85
37710;BME280;60223;34.854;-92.408;2022-11-20T09:02:18;102219.83;;;21.91;20.81
37710;BME280;60223;34.854;-92.408;2022-11-20T09:04:44;102220.74;;;21.73;20.91
37710;BME280;60223;34.854;-92.408;2022-11-20T09:07:10;102220.94;;;21.37;21.15
37710;BME280;60223;34.854;-92.408;2022-11-20T09:09:36;102220.02;;;21.92;20.91
37710;BME280;60223;34.854;-92.408;2022-11-20T09:12:02;102221.46;;;21.54;20.99
37710;BME280;60223;34.854;-92.408;2022-11-20T09:14:27;102218.66;;;21.45;21.05
37710;BME280;60223;34.854;-92.408;2022-11-20T09:16:53;102214.57;;;21.28;21.30
37710;BME280;60223;34.854;-92.408;2022-11-20T09:19:19;102209.76;;;20.80;21.46
37710;BME280;60223;34.854;-92.408;2022-11-20T09:21:44;102208.90;;;20.96;21.31
37710;BME280;60223;34.854;-92.408;2022-11-20T09:24:11;102209.24;;;21.13;21.32
37710;BME280;60223;34.854;-92.408;2022-11-20T09:26:37;102212.09;;;20.94;21.60
37710;BME280;60223;34.854;-92.408;2022-11-20T09:29:02;102216.53;;;20.81;21.63
37710;BME280;60223;34.854;-92.408;2022-11-20T09:31:28;102215.85;;;22.81;20.25
37710;BME280;60223;34.854;-92.408;2022-11-20T09:33:54;102218.12;;;21.95;20.71
37710;BME280;60223;34.854;-92.408;2022-11-20T09:36:19;102221.89;;;21.59;20.86
37710;BME280;60223;34.854;-92.408;2022-11-20T09:38:45;102223.72;;;21.79;20.94
37710;BME280;60223;34.854;-92.408;2022-11-20T09:41:24;102221.46;;;22.64;20.29
37710;BME280;60223;34.854;-92.408;2022-11-20T09:43:46;102211.73;;;22.98;19.92
37710;BME280;60223;34.854;-92.408;2022-11-20T09:46:10;102212.23;;;23.39;19.72
37710;BME280;60223;34.854;-92.408;2022-11-20T09:48:43;102211.47;;;22.95;19.70
37710;BME280;60223;34.854;-92.408;2022-11-20T09:50:58;102208.66;;;23.16;19.54
37710;BME280;60223;34.854;-92.408;2022-11-20T09:53:26;102202.65;;;23.15;19.68
37710;BME280;60223;34.854;-92.408;2022-11-20T09:55:46;102196.79;;;22.90;19.82
37710;BME280;60223;34.854;-92.408;2022-11-20T09:58:18;102192.85;;;22.91;19.85
37710;BME280;60223;34.854;-92.408;2022-11-20T10:00:39;102199.12;;;22.56;20.08
37710;BME280;60223;34.854;-92.408;2022-11-20T10:03:06;102197.75;;;22.50;20.10
37710;BME280;60223;34.854;-92.408;2022-11-20T10:05:31;102196.46;;;22.38;20.19
37710;BME280;60223;34.854;-92.408;2022-11-20T10:07:59;102200.12;;;22.06;20.38
37710;BME280;60223;34.854;-92.408;2022-11-20T10:10:21;102203.11;;;22.16;20.31
37710;BME280;60223;34.854;-92.408;2022-11-20T10:12:53;102209.14;;;21.33;20.87
37710;BME280;60223;34.854;-92.408;2022-11-20T10:15:21;102211.52;;;21.32;20.83
37710;BME280;60223;34.854;-92.408;2022-11-20T10:17:50;102213.67;;;21.95;20.52
37710;BME280;60223;34.854;-92.408;2022-11-20T10:20:15;102211.56;;;21.42;20.89
37710;BME280;60223;34.854;-92.408;2022-11-20T10:22:41;102214.63;;;21.31;20.93
37710;BME280;60223;34.854;-92.408;2022-11-20T10:25:00;102213.94;;;21.42;20.99
37710;BME280;60223;34.854;-92.408;2022-11-20T10:27:32;102210.03;;;20.51;21.63
37710;BME280;60223;34.854;-92.408;2022-11-20T10:29:49;102203.00;;;20.39;21.79
37710;BME280;60223;34.854;-92.408;2022-11-20T10:32:16;102209.20;;;22.11;20.44
37710;BME280;60223;34.854;-92.408;2022-11-20T10:34:43;102207.34;;;21.48;20.56
37710;BME280;60223;34.854;-92.408;2022-11-20T10:37:05;102205.52;;;21.89;20.51
37710;BME280;60223;34.854;-92.408;2022-11-20T10:39:35;102202.43;;;21.60;20.57
37710;BME280;60223;34.854;-92.408;2022-11-20T10:41:55;102202.57;;;22.57;19.91
37710;BME280;60223;34.854;-92.408;2022-11-20T10:44:21;102200.59;;;23.04;19.53
37710;BME280;60223;34.854;-92.408;2022-11-20T10:46:47;102200.77;;;22.83;19.50
37710;BME280;60223;34.854;-92.408;2022-11-20T10:49:17;102201.80;;;23.37;19.45
37710;BME280;60223;34.854;-92.408;2022-11-20T10:51:44;102201.98;;;23.04;19.50
37710;BME280;60223;34.854;-92.408;2022-11-20T10:54:11;102202.90;;;23.08;19.58
37710;BME280;60223;34.854;-92.408;2022-11-20T10:56:34;102204.02;;;22.80;19.60
37710;BME280;60223;34.854;-92.408;2022-11-20T10:59:04;102204.80;;;22.82;19.63
37710;BME280;60223;34.854;-92.408;2022-11-20T11:01:21;102207.11;;;22.65;19.70
37710;BME280;60223;34.854;-92.408;2022-11-20T11:03:46;102205.51;;;22.26;19.96
37710;BME280;60223;34.854;-92.408;2022-11-20T11:06:17;102208.25;;;22.03;20.11
37710;BME280;60223;34.854;-92.408;2022-11-20T11:08:39;102210.45;;;21.69;20.29
37710;BME280;60223;34.854;-92.408;2022-11-20T11:11:10;102213.60;;;21.58;20.37
37710;BME280;60223;34.854;-92.408;2022-11-20T11:13:30;102212.72;;;21.19;20.44
37710;BME280;60223;34.854;-92.408;2022-11-20T11:15:55;102213.15;;;21.68;20.43
37710;BME280;60223;34.854;-92.408;2022-11-20T11:18:32;102214.05;;;21.53;20.49
37710;BME280;60223;34.854;-92.408;2022-11-20T11:20:51;102213.27;;;21.14;20.56
37710;BME280;60223;34.854;-92.408;2022-11-20T11:25:38;102211.43;;;22.04;20.08
37710;BME280;60223;34.854;-92.408;2022-11-20T11:28:17;102212.24;;;21.73;20.34
37710;BME280;60223;34.854;-92.408;2022-11-20T11:30:40;102217.80;;;21.95;20.20
37710;BME280;60223;34.854;-92.408;2022-11-20T11:33:04;102223.05;;;21.95;20.24
37710;BME280;60223;34.854;-92.408;2022-11-20T11:35:26;102226.70;;;22.61;19.81
37710;BME280;60223;34.854;-92.408;2022-11-20T11:37:46;102229.61;;;22.84;19.47
37710;BME280;60223;34.854;-92.408;2022-11-20T11:40:12;102231.40;;;23.01;19.24
37710;BME280;60223;34.854;-92.408;2022-11-20T11:42:41;102234.76;;;23.26;19.11
37710;BME280;60223;34.854;-92.408;2022-11-20T11:45:05;102238.56;;;22.89;19.34
37710;BME280;60223;34.854;-92.408;2022-11-20T11:47:31;102240.31;;;22.86;19.33
37710;BME280;60223;34.854;-92.408;2022-11-20T11:50:02;102248.97;;;22.60;19.32
37710;BME280;60223;34.854;-92.408;2022-11-20T11:52:22;102251.54;;;22.79;19.34
37710;BME280;60223;34.854;-92.408;2022-11-20T11:54:50;102250.52;;;22.43;19.42
37710;BME280;60223;34.854;-92.408;2022-11-20T11:57:17;102251.43;;;22.49;19.54
37710;BME280;60223;34.854;-92.408;2022-11-20T11:59:47;102251.46;;;22.25;19.86
37710;BME280;60223;34.854;-92.408;2022-11-20T12:02:11;102250.94;;;21.62;19.94
37710;BME280;60223;34.854;-92.408;2022-11-20T12:04:39;102249.18;;;21.80;20.12
37710;BME280;60223;34.854;-92.408;2022-11-20T12:07:01;102247.27;;;21.50;20.17
37710;BME280;60223;34.854;-92.408;2022-11-20T12:09:23;102247.79;;;21.35;20.24
37710;BME280;60223;34.854;-92.408;2022-11-20T12:11:49;102250.63;;;21.29;20.26
37710;BME280;60223;34.854;-92.408;2022-11-20T12:14:18;102256.51;;;19.13;22.20
37710;BME280;60223;34.854;-92.408;2022-11-20T12:16:39;102258.20;;;20.59;21.08
37710;BME280;60223;34.854;-92.408;2022-11-20T12:19:07;102260.02;;;22.16;19.90
37710;BME280;60223;34.854;-92.408;2022-11-20T12:21:33;102265.27;;;21.51;20.29
37710;BME280;60223;34.854;-92.408;2022-11-20T12:24:06;102272.15;;;21.91;20.22
37710;BME280;60223;34.854;-92.408;2022-11-20T12:26:31;102275.03;;;21.85;20.03
37710;BME280;60223;34.854;-92.408;2022-11-20T12:28:57;102277.12;;;22.70;19.48
37710;BME280;60223;34.854;-92.408;2022-11-20T12:31:24;102279.85;;;23.23;19.06
37710;BME280;60223;34.854;-92.408;2022-11-20T12:33:48;102286.69;;;22.94;19.08
37710;BME280;60223;34.854;-92.408;2022-11-20T12:36:13;102284.50;;;23.08;18.99